Time;durP1;ratioP1;P1;durP2;ratioP2;P2;SDS_P1;SDS_P2;PMS_P1;PMS_P2;Temp;Humidity;BMP_temperature;BMP_pressure;BME280_temperature;BME280_humidity;BME280_pressure;Samples;Min_cycle;Max_cycle;Signal;HPM_P1;HPM_P2
2022/10/06 00:00:52;;;;;;;11.00;2.00;;;;;;;10.81;100.00;102175.91;5013814;28;20042;-75
2022/10/06 00:03:17;;;;;;;14.60;2.25;;;;;;;10.77;100.00;102180.25;5014659;28;20049;-75
2022/10/06 00:05:43;;;;;;;11.20;2.03;;;;;;;10.75;100.00;102183.75;5014205;28;20061;-75
2022/10/06 00:08:10;;;;;;;9.07;2.30;;;;;;;10.73;100.00;102183.75;5013943;28;20381;-75
2022/10/06 00:10:35;;;;;;;10.70;2.33;;;;;;;10.74;100.00;102190.69;5014177;28;20040;-75
2022/10/06 00:13:00;;;;;;;14.25;2.95;;;;;;;10.80;100.00;102202.00;5014269;28;20026;-75
2022/10/06 00:15:31;;;;;;;18.00;2.63;;;;;;;10.77;100.00;102206.34;5012794;28;20030;-75
2022/10/06 00:17:58;;;;;;;10.07;2.40;;;;;;;10.84;100.00;102214.16;5014185;28;20057;-75
2022/10/06 00:20:25;;;;;;;15.73;2.50;;;;;;;10.84;100.00;102217.63;5013797;28;20034;-74
2022/10/06 00:22:51;;;;;;;12.57;2.95;;;;;;;10.86;100.00;102225.47;5013381;28;20092;-75
2022/10/06 00:25:19;;;;;;;11.23;2.17;;;;;;;10.82;100.00;102224.59;5013992;28;20034;-75
2022/10/06 00:27:48;;;;;;;11.85;2.42;;;;;;;10.78;100.00;102228.09;5014234;28;20022;-74
2022/10/06 00:30:17;;;;;;;9.65;2.45;;;;;;;10.77;100.00;102232.44;5013529;28;20037;-75
2022/10/06 00:32:53;;;;;;;14.13;2.83;;;;;;;10.68;100.00;102232.44;5013341;28;20413;-74
2022/10/06 00:35:20;;;;;;;13.68;2.83;;;;;;;10.70;100.00;102248.09;5013656;28;20427;-74
2022/10/06 00:37:45;;;;;;;14.27;2.67;;;;;;;10.69;100.00;102235.91;5013850;28;20034;-75
2022/10/06 00:40:10;;;;;;;12.43;2.60;;;;;;;10.65;100.00;102247.22;5013673;28;20536;-74
2022/10/06 00:42:55;;;;;;;9.57;2.83;;;;;;;10.63;100.00;102246.38;5013426;28;20026;-75
2022/10/06 00:45:45;;;;;;;14.15;2.72;;;;;;;10.57;100.00;102244.66;5013687;28;20038;-74
2022/10/06 00:48:24;;;;;;;18.90;2.85;;;;;;;10.59;100.00;102248.09;5024631;28;20117;-74
2022/10/06 00:50:52;;;;;;;11.60;2.65;;;;;;;10.57;100.00;102254.22;5009176;28;20034;-75
2022/10/06 00:53:18;;;;;;;13.90;2.80;;;;;;;10.50;100.00;102259.44;5013118;28;20026;-74
2022/10/06 00:55:44;;;;;;;9.15;2.42;;;;;;;10.47;100.00;102255.97;5016658;28;20088;-74
2022/10/06 00:58:09;;;;;;;16.45;2.80;;;;;;;10.47;100.00;102263.78;5012665;28;20026;-74
2022/10/06 01:00:35;;;;;;;11.05;2.95;;;;;;;10.47;100.00;102259.44;4999110;28;20041;-75
2022/10/06 01:03:06;;;;;;;8.55;3.08;;;;;;;10.43;100.00;102268.13;5013844;28;20021;-75
2022/10/06 01:05:35;;;;;;;9.80;2.83;;;;;;;10.42;100.00;102279.41;5011310;28;20026;-75
2022/10/06 01:08:01;;;;;;;12.32;2.40;;;;;;;10.40;100.00;102268.13;5016040;28;20032;-75
2022/10/06 01:10:26;;;;;;;10.07;2.47;;;;;;;10.36;100.00;102276.78;5013050;28;20025;-74
2022/10/06 01:12:52;;;;;;;8.93;2.70;;;;;;;10.29;100.00;102281.13;5012577;28;20022;-75
2022/10/06 01:15:20;;;;;;;10.32;2.40;;;;;;;10.25;100.00;102283.72;5012885;28;20025;-74
2022/10/06 01:17:54;;;;;;;15.73;2.70;;;;;;;10.23;100.00;102295.88;5013226;28;20410;-75
2022/10/06 01:20:21;;;;;;;15.13;2.78;;;;;;;10.19;100.00;102299.34;5012686;28;20025;-75
2022/10/06 01:22:56;;;;;;;15.23;2.33;;;;;;;10.16;100.00;102309.75;5000792;28;20475;-74
2022/10/06 01:25:22;;;;;;;19.10;2.83;;;;;;;10.18;100.00;102305.44;5002924;28;20033;-74
2022/10/06 01:27:52;;;;;;;14.20;2.88;;;;;;;10.20;100.00;102316.72;5013374;28;20030;-75
2022/10/06 01:30:25;;;;;;;14.80;2.85;;;;;;;10.12;100.00;102315.84;5012691;28;20116;-74
2022/10/06 01:32:51;;;;;;;14.45;2.60;;;;;;;10.12;100.00;102326.25;5012721;28;20018;-75
2022/10/06 01:35:16;;;;;;;16.23;3.10;;;;;;;10.07;100.00;102329.75;5012626;28;20026;-75
2022/10/06 01:37:41;;;;;;;20.25;3.67;;;;;;;9.97;100.00;102324.47;5012385;28;20033;-74
2022/10/06 01:40:08;;;;;;;11.70;2.88;;;;;;;10.04;100.00;102326.25;5011324;28;20548;-74
2022/10/06 01:42:34;;;;;;;12.20;3.00;;;;;;;9.99;100.00;102334.03;5012371;28;20037;-74
2022/10/06 01:45:00;;;;;;;12.00;2.53;;;;;;;9.94;100.00;102332.28;5013038;28;20366;-74
2022/10/06 01:47:25;;;;;;;11.45;2.63;;;;;;;9.92;100.00;102347.94;5011697;28;20034;-74
2022/10/06 01:49:51;;;;;;;10.43;2.53;;;;;;;9.90;100.00;102351.38;5012544;28;20140;-74
2022/10/06 01:52:19;;;;;;;15.20;2.38;;;;;;;9.87;100.00;102356.59;5012754;28;20164;-74
2022/10/06 01:54:45;;;;;;;10.18;2.33;;;;;;;9.84;100.00;102357.44;5012101;28;20030;-74
2022/10/06 01:57:10;;;;;;;12.55;2.40;;;;;;;9.81;100.00;102358.31;5011897;28;20083;-74
2022/10/06 01:59:35;;;;;;;16.85;3.08;;;;;;;9.81;100.00;102360.91;5011994;28;20057;-74
2022/10/06 02:02:01;;;;;;;13.35;3.10;;;;;;;9.80;100.00;102363.50;5011991;28;20162;-74
2022/10/06 02:04:27;;;;;;;18.55;3.95;;;;;;;9.80;100.00;102359.16;5011652;28;20029;-75
2022/10/06 02:06:54;;;;;;;11.82;2.53;;;;;;;9.77;100.00;102363.50;5015188;28;20424;-74
2022/10/06 02:09:19;;;;;;;15.13;2.83;;;;;;;9.76;100.00;102364.38;5020818;28;20417;-74
2022/10/06 02:11:45;;;;;;;21.40;3.15;;;;;;;9.70;100.00;102359.13;5011601;28;20515;-74
2022/10/06 02:14:11;;;;;;;18.77;2.90;;;;;;;9.67;100.00;102364.31;5011395;28;20041;-74
2022/10/06 02:16:37;;;;;;;12.02;2.85;;;;;;;9.62;100.00;102372.13;5011050;28;20544;-74
2022/10/06 02:19:02;;;;;;;15.10;3.42;;;;;;;9.64;100.00;102380.78;5011440;28;20036;-74
2022/10/06 02:21:27;;;;;;;13.18;2.70;;;;;;;9.63;100.00;102376.44;5013851;28;20511;-74
2022/10/06 02:23:53;;;;;;;20.33;3.55;;;;;;;9.65;100.00;102379.94;5010981;28;20034;-74
2022/10/06 02:26:18;;;;;;;15.88;3.03;;;;;;;9.63;100.00;102386.88;5009194;28;20378;-74
2022/10/06 02:28:45;;;;;;;17.45;2.58;;;;;;;9.58;100.00;102386.84;5010383;28;20022;-74
2022/10/06 02:31:12;;;;;;;19.27;2.80;;;;;;;9.51;100.00;102390.25;5011111;28;20042;-75
2022/10/06 02:33:39;;;;;;;13.85;2.72;;;;;;;9.55;100.00;102399.84;5009968;28;20544;-74
2022/10/06 02:36:06;;;;;;;18.75;3.60;;;;;;;9.51;100.00;102399.81;5014862;28;20053;-74
2022/10/06 02:38:32;;;;;;;10.48;2.60;;;;;;;9.49;100.00;102399.81;5011249;28;20458;-74
2022/10/06 02:40:58;;;;;;;16.30;2.70;;;;;;;9.48;100.00;102408.50;5012099;28;20032;-74
2022/10/06 02:43:23;;;;;;;9.55;2.33;;;;;;;9.42;100.00;102404.97;5010786;28;20462;-74
2022/10/06 02:45:56;;;;;;;16.15;2.50;;;;;;;9.46;100.00;102409.34;5011906;28;20088;-75
2022/10/06 02:48:23;;;;;;;12.35;2.53;;;;;;;9.47;100.00;102418.88;5010340;28;20069;-74
2022/10/06 02:51:10;;;;;;;17.58;3.03;;;;;;;9.41;100.00;102424.91;5011441;28;20389;-74
2022/10/06 02:53:36;;;;;;;15.75;3.20;;;;;;;9.38;100.00;102427.50;5011160;28;20032;-74
2022/10/06 02:56:05;;;;;;;15.43;2.67;;;;;;;9.38;100.00;102433.59;5012032;28;20036;-74
2022/10/06 02:58:31;;;;;;;13.38;2.80;;;;;;;9.32;100.00;102433.56;5010730;28;20065;-74
2022/10/06 03:01:02;;;;;;;22.30;3.08;;;;;;;9.25;100.00;102429.13;5011589;28;20034;-74
2022/10/06 03:03:28;;;;;;;9.80;2.88;;;;;;;9.27;100.00;102436.97;5010354;28;20030;-74
2022/10/06 03:06:20;;;;;;;20.27;3.10;;;;;;;9.27;100.00;102450.00;5011361;28;20022;-74
2022/10/06 03:08:49;;;;;;;17.42;2.40;;;;;;;9.27;100.00;102455.19;5011740;28;20385;-74
2022/10/06 03:11:18;;;;;;;11.68;2.38;;;;;;;9.23;100.00;102456.03;5011333;28;20026;-74
2022/10/06 03:13:43;;;;;;;11.13;2.65;;;;;;;9.19;100.00;102467.25;5019219;28;20025;-74
2022/10/06 03:16:17;;;;;;;14.57;2.80;;;;;;;9.19;100.00;102464.66;5011589;28;20026;-74
2022/10/06 03:18:44;;;;;;;18.02;2.97;;;;;;;9.17;100.00;102469.00;5009563;28;20021;-74
2022/10/06 03:21:10;;;;;;;12.50;2.80;;;;;;;9.13;100.00;102474.16;5005372;28;20041;-74
2022/10/06 03:23:36;;;;;;;13.23;2.13;;;;;;;9.09;100.00;102474.09;5011942;28;20060;-74
2022/10/06 03:26:01;;;;;;;18.00;3.20;;;;;;;9.02;100.00;102475.78;5014574;28;20030;-74
2022/10/06 03:28:26;;;;;;;15.80;2.70;;;;;;;9.01;100.00;102476.66;5013852;28;20025;-75
2022/10/06 03:30:53;;;;;;;13.77;2.45;;;;;;;8.99;100.00;102473.19;5015066;28;20474;-74
2022/10/06 03:33:19;;;;;;;13.60;2.83;;;;;;;8.97;100.00;102487.03;5014080;28;20109;-74
2022/10/06 03:35:44;;;;;;;15.43;3.15;;;;;;;8.99;100.00;102486.19;5014207;28;20101;-75
2022/10/06 03:38:09;;;;;;;15.23;3.05;;;;;;;8.92;100.00;102489.56;5013767;28;20018;-74
2022/10/06 03:40:34;;;;;;;18.42;3.08;;;;;;;8.88;100.00;102486.06;5013304;28;20041;-74
2022/10/06 03:43:00;;;;;;;16.45;3.75;;;;;;;8.91;100.00;102493.91;5013692;28;20057;-74
2022/10/06 03:45:25;;;;;;;13.57;2.85;;;;;;;8.91;100.00;102508.63;5014384;28;20041;-75
2022/10/06 03:47:50;;;;;;;14.57;3.45;;;;;;;8.87;100.00;102507.75;5013481;28;20054;-74
2022/10/06 03:50:16;;;;;;;17.27;3.10;;;;;;;8.85;100.00;102508.56;5014107;28;20473;-74
2022/10/06 03:52:41;;;;;;;19.00;3.10;;;;;;;8.87;100.00;102512.06;5013331;28;20075;-74
2022/10/06 03:55:07;;;;;;;15.95;2.55;;;;;;;8.83;100.00;102515.50;5014283;28;20111;-74
2022/10/06 03:57:32;;;;;;;9.73;2.75;;;;;;;8.80;100.00;102518.94;5013509;28;20072;-74
2022/10/06 03:59:58;;;;;;;13.18;2.80;;;;;;;8.77;100.00;102518.91;5013295;28;20034;-75
2022/10/06 04:02:24;;;;;;;20.50;3.15;;;;;;;8.74;100.00;102525.81;5013356;28;20022;-74
2022/10/06 04:04:49;;;;;;;14.57;3.08;;;;;;;8.72;100.00;102536.19;5017056;28;20072;-74
2022/10/06 04:07:14;;;;;;;14.95;3.10;;;;;;;8.66;100.00;102539.59;5013769;28;20618;-74
2022/10/06 04:09:39;;;;;;;19.80;2.95;;;;;;;8.66;100.00;102541.31;5013463;28;20046;-74
2022/10/06 04:12:05;;;;;;;15.35;3.08;;;;;;;8.64;100.00;102543.03;5014043;28;20073;-74
2022/10/06 04:14:30;;;;;;;15.35;3.10;;;;;;;8.63;100.00;102552.56;5012614;28;20026;-74
2022/10/06 04:16:56;;;;;;;15.05;3.45;;;;;;;8.60;100.00;102559.41;5014129;28;20030;-74
2022/10/06 04:19:21;;;;;;;18.98;3.30;;;;;;;8.56;100.00;102562.84;5016965;28;20104;-74
2022/10/06 04:21:47;;;;;;;21.13;4.00;;;;;;;8.55;100.00;102566.31;5013618;28;20064;-74
2022/10/06 04:24:13;;;;;;;18.25;3.20;;;;;;;8.51;100.00;102560.19;5014219;28;20022;-74
2022/10/06 04:26:47;;;;;;;16.33;4.00;;;;;;;8.50;100.00;102565.38;5013635;28;20530;-74
2022/10/06 04:29:13;;;;;;;20.00;3.80;;;;;;;8.50;100.00;102571.47;5013040;28;20018;-74
2022/10/06 04:31:39;;;;;;;17.23;3.78;;;;;;;8.44;100.00;102572.25;5013503;28;20022;-74
2022/10/06 04:34:06;;;;;;;24.30;3.40;;;;;;;8.41;100.00;102576.53;5013660;28;20025;-74
2022/10/06 04:36:34;;;;;;;15.07;3.40;;;;;;;8.44;100.00;102584.38;5013008;28;20540;-74
2022/10/06 04:39:02;;;;;;;21.73;4.53;;;;;;;8.37;100.00;102580.78;5013683;28;20038;-74
2022/10/06 04:41:30;;;;;;;14.10;3.35;;;;;;;8.37;100.00;102588.59;5013341;28;20612;-74
2022/10/06 04:43:56;;;;;;;23.80;3.25;;;;;;;8.36;100.00;102585.94;5013525;28;20512;-75
2022/10/06 04:46:23;;;;;;;19.58;3.60;;;;;;;8.36;100.00;102585.94;5012193;28;20058;-74
2022/10/06 04:48:50;;;;;;;23.70;3.55;;;;;;;8.34;100.00;102593.75;5013840;28;20072;-74
2022/10/06 04:51:16;;;;;;;19.33;3.58;;;;;;;8.31;100.00;102600.63;5013065;28;20054;-74
2022/10/06 04:53:45;;;;;;;20.10;3.45;;;;;;;8.33;100.00;102601.50;5013000;28;20061;-74
2022/10/06 04:56:14;;;;;;;27.27;3.85;;;;;;;8.28;100.00;102613.56;5013385;28;20025;-74
2022/10/06 04:58:44;;;;;;;18.77;3.60;;;;;;;8.26;100.00;102615.25;5012914;28;20026;-74
2022/10/06 05:01:19;;;;;;;19.52;3.50;;;;;;;8.21;100.00;102612.63;5013778;28;20116;-74
2022/10/06 05:03:45;;;;;;;21.08;3.00;;;;;;;8.18;100.00;102616.03;5011975;28;20022;-74
2022/10/06 05:06:19;;;;;;;14.05;3.15;;;;;;;8.16;100.00;102625.50;5013310;28;20384;-74
2022/10/06 05:08:52;;;;;;;22.27;3.38;;;;;;;8.14;100.00;102637.63;5013428;28;20033;-74
2022/10/06 05:11:18;;;;;;;;;;;;;;;8.10;100.00;102646.19;5013038;28;20496;-75
2022/10/06 05:13:44;;;;;;;21.77;3.72;;;;;;;8.07;100.00;102635.75;5012864;28;19913;-74
2022/10/06 05:16:15;;;;;;;23.67;4.53;;;;;;;8.01;100.00;102635.69;5013499;28;20025;-74
2022/10/06 05:18:41;;;;;;;19.42;3.70;;;;;;;8.04;100.00;102640.91;5012115;28;20418;-74
2022/10/06 05:21:10;;;;;;;21.45;3.95;;;;;;;8.03;100.00;102646.97;5012120;28;20037;-74
2022/10/06 05:23:37;;;;;;;26.10;4.15;;;;;;;8.00;100.00;102652.09;5014092;28;20033;-74
2022/10/06 05:26:03;;;;;;;19.27;4.22;;;;;;;8.01;100.00;102653.88;5024564;28;20401;-74
2022/10/06 05:28:30;;;;;;;19.75;3.50;;;;;;;8.01;100.00;102659.06;5011537;28;20065;-74
2022/10/06 05:31:12;;;;;;;25.90;3.58;;;;;;;7.94;100.00;102657.19;5016285;28;20030;-74
2022/10/06 05:33:38;;;;;;;21.80;4.10;;;;;;;7.95;100.00;102661.56;5010881;28;20063;-75
2022/10/06 05:36:15;;;;;;;25.95;4.07;;;;;;;7.95;100.00;102678.00;5013920;28;20513;-74
2022/10/06 05:38:40;;;;;;;16.77;3.42;;;;;;;7.91;100.00;102676.22;5006041;28;20026;-75
2022/10/06 05:41:10;;;;;;;20.13;3.70;;;;;;;7.91;100.00;102685.72;5012496;28;20061;-75
2022/10/06 05:43:35;;;;;;;30.98;4.13;;;;;;;7.88;100.00;102693.44;5000262;28;20076;-74
2022/10/06 05:46:02;;;;;;;18.85;3.30;;;;;;;7.87;100.00;102696.91;5012011;28;20436;-75
2022/10/06 05:48:28;;;;;;;27.15;3.58;;;;;;;7.84;100.00;102697.72;5011927;28;20046;-75
2022/10/06 05:51:01;;;;;;;25.13;3.58;;;;;;;7.83;100.00;102693.38;5012815;28;20034;-74
2022/10/06 05:53:28;;;;;;;20.42;3.35;;;;;;;7.84;100.00;102702.03;5011186;28;20373;-74
2022/10/06 05:56:08;;;;;;;23.45;3.88;;;;;;;7.82;100.00;102707.22;5012531;28;20084;-74
2022/10/06 05:58:36;;;;;;;26.58;4.00;;;;;;;7.81;100.00;102709.78;5012121;28;20022;-74
2022/10/06 06:01:25;;;;;;;27.67;3.97;;;;;;;7.82;100.00;102711.53;5012165;28;20033;-74
2022/10/06 06:03:59;;;;;;;16.88;3.45;;;;;;;7.82;100.00;102711.53;5004929;28;20096;-74
2022/10/06 06:06:44;;;;;;;26.90;3.90;;;;;;;7.79;100.00;102719.28;5012268;28;20034;-75
2022/10/06 06:09:12;;;;;;;22.25;3.50;;;;;;;7.78;100.00;102720.09;5000753;28;20018;-74
2022/10/06 06:11:40;;;;;;;16.48;3.50;;;;;;;7.80;100.00;102719.28;5011105;28;20409;-74
2022/10/06 06:14:10;;;;;;;22.02;4.20;;;;;;;7.81;100.00;102723.63;5011560;28;20029;-74
2022/10/06 06:16:38;;;;;;;19.67;4.00;;;;;;;7.80;100.00;102721.88;5020938;28;20389;-74
2022/10/06 06:19:04;;;;;;;17.42;3.40;;;;;;;7.79;100.00;102724.47;5012418;28;20535;-74
2022/10/06 06:21:29;;;;;;;21.42;3.97;;;;;;;7.80;100.00;102731.41;5011418;28;20124;-74
2022/10/06 06:23:55;;;;;;;26.38;4.10;;;;;;;7.76;100.00;102721.81;5012240;28;20046;-74
2022/10/06 06:26:31;;;;;;;26.48;4.22;;;;;;;7.79;100.00;102730.53;5012060;28;20537;-74
2022/10/06 06:29:02;;;;;;;22.15;3.63;;;;;;;7.83;100.00;102734.94;5010886;28;20101;-74
2022/10/06 06:31:36;;;;;;;39.08;4.65;;;;;;;7.85;100.00;102738.44;5014317;28;20544;-74
2022/10/06 06:34:03;;;;;;;27.35;3.90;;;;;;;7.82;100.00;102732.31;5014131;28;20115;-74
2022/10/06 06:36:39;;;;;;;27.58;4.20;;;;;;;7.88;100.00;102742.78;5011209;28;20029;-74
2022/10/06 06:39:07;;;;;;;24.55;4.68;;;;;;;7.95;100.00;102744.66;5011749;28;20120;-74
2022/10/06 06:41:41;;;;;;;28.90;4.53;;;;;;;7.91;100.00;102742.84;5011095;28;20470;-74
2022/10/06 06:44:10;;;;;;;26.70;4.38;;;;;;;7.99;100.00;102754.25;5014040;28;20496;-73
2022/10/06 06:46:36;;;;;;;30.60;4.85;;;;;;;7.99;100.00;102764.66;5010367;28;20037;-73
2022/10/06 06:49:03;;;;;;;26.85;4.72;;;;;;;8.01;100.00;102759.47;5012645;28;20049;-73
2022/10/06 06:51:34;;;;;;;23.10;4.45;;;;;;;8.09;100.00;102770.88;5009163;28;20433;-73
2022/10/06 06:54:01;;;;;;;22.63;4.45;;;;;;;8.11;100.00;102772.66;5010334;28;20721;-73
2022/10/06 06:56:27;;;;;;;20.00;3.72;;;;;;;8.10;100.00;102772.63;5013537;28;20029;-74
2022/10/06 06:58:52;;;;;;;25.23;4.70;;;;;;;8.15;100.00;102783.97;5014285;28;20038;-74
2022/10/06 07:01:20;;;;;;;23.55;4.28;;;;;;;8.17;100.00;102788.38;5015731;28;20029;-74
2022/10/06 07:03:54;;;;;;;33.10;5.53;;;;;;;8.19;100.00;102789.25;5014815;28;20033;-73
2022/10/06 07:06:20;;;;;;;32.50;4.45;;;;;;;8.23;100.00;102791.91;5015249;28;20041;-73
2022/10/06 07:08:47;;;;;;;21.80;4.40;;;;;;;8.30;100.00;102799.81;5015510;28;20153;-73
2022/10/06 07:11:16;;;;;;;22.17;4.32;;;;;;;8.31;100.00;102800.72;5015188;28;20030;-73
2022/10/06 07:13:42;;;;;;;31.73;4.75;;;;;;;8.38;100.00;102807.81;5001431;28;20018;-74
2022/10/06 07:27:06;;;;;;;;;;;;;;;8.55;100.00;102821.94;4998335;28;20049;-73
2022/10/06 07:29:31;;;;;;;25.70;5.18;;;;;;;8.60;100.00;102829.81;5015030;28;19910;-73
2022/10/06 07:31:56;;;;;;;32.10;5.07;;;;;;;8.64;100.00;102832.50;5014894;28;20065;-73
2022/10/06 07:34:22;;;;;;;22.88;5.15;;;;;;;8.73;100.00;102838.69;5016553;28;20462;-73
2022/10/06 07:36:52;;;;;;;28.85;4.43;;;;;;;8.74;100.00;102841.31;5015300;28;20026;-73
2022/10/06 07:39:18;;;;;;;19.48;4.85;;;;;;;8.81;100.00;102852.69;5014136;28;20084;-73
2022/10/06 07:41:43;;;;;;;24.80;5.03;;;;;;;8.84;100.00;102852.75;5014644;28;20034;-73
2022/10/06 07:44:09;;;;;;;25.30;4.82;;;;;;;8.82;100.00;102846.63;5013557;28;20037;-73
2022/10/06 07:46:34;;;;;;;25.83;4.90;;;;;;;8.89;100.00;102857.19;5013845;28;20029;-73
2022/10/06 07:48:59;;;;;;;25.83;4.43;;;;;;;8.93;100.00;102860.72;5014896;28;20049;-73
2022/10/06 07:51:26;;;;;;;22.63;4.55;;;;;;;8.99;100.00;102875.50;5012809;28;20019;-73
2022/10/06 07:53:54;;;;;;;24.98;4.35;;;;;;;9.03;100.00;102866.94;5005445;28;20117;-73
2022/10/06 07:56:20;;;;;;;28.83;5.05;;;;;;;9.10;100.00;102869.63;5013730;28;20068;-73
2022/10/06 07:58:50;;;;;;;23.95;4.72;;;;;;;9.14;100.00;102871.41;5014357;28;20057;-73
2022/10/06 08:01:17;;;;;;;20.48;4.65;;;;;;;9.19;100.00;102875.81;5013944;28;20050;-73
2022/10/06 08:03:44;;;;;;;24.33;4.55;;;;;;;9.27;100.00;102874.22;5013181;28;20056;-74
2022/10/06 08:06:48;;;;;;;24.58;4.53;;;;;;;9.35;100.00;102878.69;5014249;28;20030;-78
2022/10/06 08:09:13;;;;;;;26.15;4.40;;;;;;;9.51;100.00;102871.94;4969216;28;20432;-77
2022/10/06 08:11:38;;;;;;;26.30;4.30;;;;;;;9.63;100.00;102880.78;5000225;28;20038;-74
2022/10/06 08:14:04;;;;;;;23.60;4.15;;;;;;;9.66;100.00;102873.88;5013873;28;20037;-74
2022/10/06 08:16:29;;;;;;;15.35;3.92;;;;;;;9.77;100.00;102881.81;5013727;28;20152;-74
2022/10/06 08:18:57;;;;;;;22.42;4.47;;;;;;;9.85;100.00;102890.63;5015605;28;20060;-74
2022/10/06 08:21:25;;;;;;;18.83;3.60;;;;;;;9.90;100.00;102896.75;5012746;28;20038;-73
2022/10/06 08:23:52;;;;;;;21.73;4.53;;;;;;;9.95;100.00;102897.69;5010268;28;20109;-74
2022/10/06 08:26:20;;;;;;;22.90;3.70;;;;;;;10.02;100.00;102896.88;5014288;28;20033;-74
2022/10/06 08:28:48;;;;;;;20.33;4.10;;;;;;;10.10;100.00;102910.00;5013669;28;20026;-74
2022/10/06 08:31:14;;;;;;;20.27;3.75;;;;;;;10.17;100.00;102911.84;5013484;28;20022;-73
2022/10/06 08:33:41;;;;;;;20.90;4.25;;;;;;;10.21;100.00;102908.41;5007616;28;20029;-74
2022/10/06 08:36:10;;;;;;;25.33;3.50;;;;;;;10.22;100.00;102898.84;5001972;28;20539;-74
2022/10/06 08:38:36;;;;;;;22.42;4.13;;;;;;;10.39;100.00;102917.31;5013436;28;20018;-74
2022/10/06 08:41:15;;;;;;;16.73;3.15;;;;;;;10.44;100.00;102910.41;5013054;28;20584;-74
2022/10/06 08:43:42;;;;;;;18.90;3.10;;;;;;;10.53;100.00;102924.41;5005371;28;20041;-74
2022/10/06 08:46:11;;;;;;;15.98;4.18;;;;;;;10.59;100.00;102920.97;5017976;28;20436;-74
2022/10/06 08:48:37;;;;;;;12.63;3.30;;;;;;;10.66;100.00;102928.03;5004784;28;20057;-74
2022/10/06 08:51:28;;;;;;;19.30;3.65;;;;;;;10.77;100.00;102921.16;5005785;28;20026;-75
2022/10/06 08:54:35;;;;;;;23.73;3.63;;;;;;;10.84;100.00;102916.88;4999512;28;20022;-75
2022/10/06 08:57:16;;;;;;;14.82;3.17;;;;;;;10.97;100.00;102931.75;5007620;28;20032;-75
2022/10/06 08:59:46;;;;;;;15.15;3.13;;;;;;;11.06;100.00;102927.50;5010389;28;20083;-75
2022/10/06 09:02:31;;;;;;;16.42;3.22;;;;;;;11.15;100.00;102935.38;5000864;28;20026;-74
2022/10/06 09:05:00;;;;;;;20.05;3.47;;;;;;;11.26;100.00;102946.78;5010247;28;20483;-73
2022/10/06 09:08:02;;;;;;;17.13;3.38;;;;;;;11.34;100.00;102949.44;5011929;28;20022;-74
2022/10/06 09:10:42;;;;;;;13.73;3.30;;;;;;;11.43;100.00;102949.50;5011178;28;20022;-75
2022/10/06 09:13:10;;;;;;;17.90;3.30;;;;;;;11.49;100.00;102949.56;5009604;28;20040;-75
2022/10/06 09:15:49;;;;;;;15.00;2.83;;;;;;;11.58;100.00;102953.97;5013206;28;20038;-76
2022/10/06 09:18:23;;;;;;;11.50;2.92;;;;;;;11.67;100.00;102961.84;5006500;28;20030;-75
2022/10/06 09:20:54;;;;;;;17.95;2.80;;;;;;;11.82;100.00;102959.31;5001832;28;20057;-74
2022/10/06 09:26:09;;;;;;;13.77;2.80;;;;;;;12.08;100.00;102966.44;4998480;28;20038;-75
2022/10/06 09:28:35;;;;;;;13.07;2.83;;;;;;;12.12;100.00;102974.28;5007356;28;20029;-75
2022/10/06 09:31:02;;;;;;;10.25;2.20;;;;;;;12.08;100.00;102950.75;5008462;28;20018;-75
2022/10/06 09:33:36;;;;;;;16.65;2.70;;;;;;;12.17;100.00;102963.88;5009972;28;20044;-74
2022/10/06 09:36:09;;;;;;;16.13;2.88;;;;;;;12.27;100.00;102970.00;5004102;28;20026;-75
2022/10/06 09:39:01;;;;;;;19.77;2.97;;;;;;;12.40;100.00;102980.50;5004288;28;20025;-75
2022/10/06 09:41:37;;;;;;;15.48;3.10;;;;;;;12.46;100.00;102978.75;5011448;28;20050;-75
2022/10/06 09:44:23;;;;;;;14.02;2.60;;;;;;;12.61;100.00;102978.81;5012834;28;20025;-75
2022/10/06 09:46:48;;;;;;;16.33;2.60;;;;;;;12.71;100.00;102983.19;4998311;28;20029;-75
2022/10/06 09:49:22;;;;;;;11.13;2.53;;;;;;;12.87;100.00;102987.56;5008280;28;20038;-75
2022/10/06 09:52:14;;;;;;;11.93;2.97;;;;;;;12.94;100.00;102977.09;5005628;28;20030;-75
2022/10/06 09:54:42;;;;;;;14.45;2.40;;;;;;;12.90;100.00;102978.84;4989236;28;20402;-75
2022/10/06 09:57:13;;;;;;;13.02;2.03;;;;;;;12.94;100.00;102988.44;5000013;28;20042;-75
2022/10/06 09:59:44;;;;;;;12.77;2.63;;;;;;;13.12;100.00;102982.38;5010828;28;20068;-75
2022/10/06 10:02:29;;;;;;;20.35;3.03;;;;;;;13.22;100.00;102983.22;4999532;28;20076;-75
2022/10/06 10:04:56;;;;;;;17.20;2.65;;;;;;;13.25;100.00;102985.88;5005564;28;20021;-75
2022/10/06 10:07:26;;;;;;;15.23;2.30;;;;;;;13.24;98.36;102982.41;5001404;28;20521;-75
2022/10/06 10:10:08;;;;;;;11.13;2.65;;;;;;;13.26;99.63;102985.88;5007681;28;20034;-75
2022/10/06 10:12:34;;;;;;;12.80;2.10;;;;;;;13.40;99.32;102980.63;5004767;28;20116;-75
2022/10/06 10:15:23;;;;;;;16.80;2.85;;;;;;;13.36;100.00;102981.50;5007735;28;20117;-75
2022/10/06 10:17:55;;;;;;;16.05;2.63;;;;;;;13.52;97.39;102982.34;5008213;28;20489;-75
2022/10/06 10:20:23;;;;;;;8.65;1.80;;;;;;;13.68;96.46;102984.06;5005639;28;20030;-74
2022/10/06 10:22:51;;;;;;;8.27;1.60;;;;;;;13.76;94.03;102991.91;5003439;28;20038;-74
2022/10/06 10:25:29;;;;;;;12.35;2.13;;;;;;;13.82;95.49;102989.28;5008733;28;20032;-75
2022/10/06 10:28:18;;;;;;;9.73;2.33;;;;;;;13.82;94.42;102991.88;4997603;28;20081;-75
2022/10/06 10:30:58;;;;;;;11.77;3.05;;;;;;;13.88;91.58;102981.38;5008190;28;20038;-76
2022/10/06 10:33:38;;;;;;;9.85;1.83;;;;;;;13.94;92.57;102986.63;5010998;28;20025;-75
2022/10/06 10:36:06;;;;;;;9.15;2.10;;;;;;;14.04;86.35;102987.47;5012043;28;20080;-76
2022/10/06 10:38:39;;;;;;;8.05;1.65;;;;;;;14.14;88.43;102983.91;5010597;28;20045;-76
2022/10/06 10:41:12;;;;;;;6.55;1.88;;;;;;;14.13;88.37;102979.56;5011390;28;20044;-76
2022/10/06 10:43:47;;;;;;;9.13;1.95;;;;;;;14.12;84.06;102974.31;5011296;28;20042;-76
2022/10/06 10:46:33;;;;;;;9.73;1.75;;;;;;;14.12;85.21;102980.41;5012313;28;20032;-75
2022/10/06 10:49:30;;;;;;;9.52;1.65;;;;;;;14.19;87.64;102984.78;5007646;28;20457;-75
2022/10/06 10:52:02;;;;;;;8.20;1.50;;;;;;;14.34;82.76;102980.34;4998693;28;20026;-75
2022/10/06 10:54:43;;;;;;;7.03;1.77;;;;;;;14.39;80.92;102984.69;5011748;28;20026;-76
2022/10/06 10:57:14;;;;;;;9.75;1.83;;;;;;;14.44;80.50;102979.41;5011469;28;20060;-75
2022/10/06 10:59:51;;;;;;;9.77;1.75;;;;;;;14.51;83.97;102984.63;5011644;28;20026;-75
2022/10/06 11:02:20;;;;;;;10.45;2.25;;;;;;;14.67;81.17;102988.03;5000441;28;20482;-75
2022/10/06 11:04:49;;;;;;;11.13;2.42;;;;;;;14.75;77.37;102988.88;5011655;28;20061;-75
2022/10/06 11:07:23;;;;;;;8.15;2.08;;;;;;;15.02;84.73;102992.19;5006274;28;20042;-76
2022/10/06 11:10:08;;;;;;;9.55;2.10;;;;;;;15.21;84.60;102982.38;5011339;28;20464;-75
2022/10/06 11:12:40;;;;;;;12.05;2.45;;;;;;;15.40;81.33;102973.44;4992528;28;20463;-75
2022/10/06 11:15:15;;;;;;;9.32;2.30;;;;;;;15.35;77.97;102979.63;5005765;28;20497;-75
2022/10/06 11:17:44;;;;;;;7.88;2.15;;;;;;;15.47;78.33;102995.28;5005814;28;20038;-75
2022/10/06 11:20:41;;;;;;;8.00;2.05;;;;;;;15.57;79.82;102986.41;5011137;28;20033;-75
2022/10/06 11:23:20;;;;;;;7.05;1.98;;;;;;;15.82;80.46;102992.31;5005159;28;20117;-75
2022/10/06 11:26:11;;;;;;;6.82;2.08;;;;;;;16.06;82.13;102995.56;5005257;28;20061;-75
2022/10/06 11:28:49;;;;;;;11.48;2.35;;;;;;;16.32;74.01;102992.59;5005570;28;20109;-75
2022/10/06 11:31:33;;;;;;;9.55;2.35;;;;;;;16.48;73.61;102994.13;5011124;28;20028;-76
2022/10/06 11:34:00;;;;;;;9.57;2.95;;;;;;;16.58;73.39;102990.47;5011660;28;20381;-75
2022/10/06 11:36:54;;;;;;;10.85;2.40;;;;;;;16.77;73.05;102991.06;5011161;28;20416;-75
2022/10/06 11:39:41;;;;;;;6.22;2.83;;;;;;;17.09;72.61;102982.66;5010306;28;20022;-75
2022/10/06 11:42:39;;;;;;;6.70;2.50;;;;;;;17.57;73.13;102983.59;5011603;28;20129;-75
2022/10/06 11:45:14;;;;;;;7.25;2.05;;;;;;;18.11;68.99;102981.63;5013984;28;20109;-76